This is the latest recevied weather packets stored in our database for station/object GW1469. If no packets are shown the sender has not sent any weather packets the latest 10 day(s).
| Time | Temp. | Humidity | Pressure | Rain* | Wind** | Luminosity | Snow |
|---|---|---|---|---|---|---|---|
| 1778011780 | 23.89° C | 40% | 1022 hPa | 0 mm | - | - | - |
| 1778008172 | 24.44° C | 40% | 1022.6 hPa | 0 mm | - | - | - |
| 1778007816 | 24.44° C | 39% | 1023 hPa | 0 mm | - | - | - |
| 1778003485 | 24.44° C | 38% | 1023.3 hPa | 0 mm | - | - | - |
| 1778003125 | 23.89° C | 40% | 1023.3 hPa | 0 mm | - | - | - |
| 1778000979 | 23.89° C | 38% | 1024 hPa | 0 mm | - | - | - |
| 1778000608 | 24.44° C | 38% | 1024.3 hPa | 0 mm | - | - | - |
| 1777999512 | 23.33° C | 41% | 1024 hPa | 0 mm | - | - | - |
| 1777998439 | 22.78° C | 40% | 1024.3 hPa | 0 mm | - | - | - |
| 1777998108 | 22.78° C | 40% | 1024.3 hPa | 0 mm | - | - | - |
| 1777997735 | 22.22° C | 43% | 1024.3 hPa | 0 mm | - | - | - |
| 1777993411 | 21.67° C | 43% | 1025 hPa | 0 mm | - | - | - |
| 1777992708 | 22.22° C | 44% | 1024.7 hPa | 0 mm | - | - | - |
| 1777991952 | 21.67° C | 48% | 1024.7 hPa | 0 mm | - | - | - |
| 1777990542 | 20° C | 52% | 1024.7 hPa | 0 mm | - | - | - |
| 1777988373 | 16.11° C | 74% | 1025 hPa | 0 mm | - | - | - |
| 1777987651 | 14.44° C | 84% | 1024.7 hPa | 0 mm | - | - | - |
| 1777981165 | 7.22° C | 99% | 1024.3 hPa | 0 mm | - | - | - |
| 1777980095 | 7.22° C | 99% | 1024.3 hPa | 0 mm | - | - | - |
| 1777972872 | 7.78° C | 99% | 1023.7 hPa | 0 mm | - | - | - |
| 1777972173 | 7.78° C | 99% | 1023.3 hPa | 0 mm | - | - | - |
| 1777971810 | 7.78° C | 99% | 1023.3 hPa | 0 mm | - | - | - |
| 1777970370 | 8.33° C | 99% | 1023.3 hPa | 0 mm | - | - | - |
| 1777967849 | 7.78° C | 99% | 1023.3 hPa | 0 mm | - | - | - |
| 1777967471 | 7.78° C | 99% | 1023 hPa | 0 mm | - | - | - |
* Rain since midnight (hover to see other rain measurements)
** Current wind speed in m/s (hover to see current wind gust speed)